createdAt,value
2018-09-01T00:01:50.043Z,15.19
2018-09-01T00:04:20.356Z,15.14
2018-09-01T00:06:50.583Z,15.23
2018-09-01T00:09:21.006Z,15.17
2018-09-01T00:11:51.312Z,15.07
2018-09-01T00:14:21.542Z,15.10
2018-09-01T00:16:51.819Z,15.15
2018-09-01T00:19:22.132Z,15.21
2018-09-01T00:21:52.484Z,15.09
2018-09-01T00:24:22.709Z,15.06
2018-09-01T00:26:53.269Z,15.21
2018-09-01T00:29:24.139Z,15.12
2018-09-01T00:31:54.370Z,15.13
2018-09-01T00:34:24.548Z,15.11
2018-09-01T00:36:54.709Z,15.17
2018-09-01T00:39:24.908Z,15.23
2018-09-01T00:41:55.087Z,15.08
2018-09-01T00:44:25.607Z,15.11
2018-09-01T00:46:55.960Z,15.03
2018-09-01T00:49:26.729Z,15.06
2018-09-01T00:51:56.981Z,14.99
2018-09-01T00:54:27.462Z,14.97
2018-09-01T00:56:57.704Z,15.02
2018-09-01T00:59:28.274Z,15.00
2018-09-01T01:01:58.516Z,14.99
2018-09-01T01:04:28.771Z,14.79
2018-09-01T01:07:00.672Z,14.86
2018-09-01T01:09:30.858Z,14.83
2018-09-01T01:12:01.819Z,14.82
2018-09-01T01:14:32.165Z,14.81
2018-09-01T01:17:02.623Z,14.79
2018-09-01T01:19:33.032Z,14.83
2018-09-01T01:22:04.517Z,14.89
2018-09-01T01:24:34.906Z,14.89
2018-09-01T01:27:05.273Z,14.90
2018-09-01T01:29:35.640Z,14.92
2018-09-01T01:32:06.658Z,14.96
2018-09-01T01:34:37.052Z,14.85
2018-09-01T01:37:07.681Z,14.78
2018-09-01T01:39:37.964Z,14.67
2018-09-01T01:42:08.281Z,14.64
2018-09-01T01:44:38.586Z,14.60
2018-09-01T01:47:08.770Z,14.76
2018-09-01T01:49:39.380Z,14.65
2018-09-01T01:52:09.699Z,14.67
2018-09-01T01:54:39.984Z,14.57
2018-09-01T01:57:10.356Z,14.65
2018-09-01T01:59:40.729Z,14.47
2018-09-01T02:02:11.094Z,14.49
2018-09-01T02:04:41.424Z,14.55
2018-09-01T02:07:11.671Z,14.53
2018-09-01T02:09:42.644Z,14.43
2018-09-01T02:12:12.803Z,14.47
2018-09-01T02:14:43.043Z,14.47
2018-09-01T02:17:13.776Z,14.38
2018-09-01T02:19:44.051Z,14.27
2018-09-01T02:22:14.397Z,14.53
2018-09-01T02:24:44.832Z,14.44
2018-09-01T02:27:15.110Z,14.37
2018-09-01T02:29:45.408Z,14.33
2018-09-01T02:32:15.512Z,14.34
2018-09-01T02:34:46.457Z,14.37
2018-09-01T02:37:16.909Z,14.15
2018-09-01T02:39:47.333Z,14.23
2018-09-01T02:42:17.537Z,14.05
2018-09-01T02:44:47.856Z,14.07
2018-09-01T02:47:18.484Z,13.99
2018-09-01T02:49:48.793Z,13.94
2018-09-01T02:52:19.484Z,14.08
2018-09-01T02:54:49.728Z,14.20
2018-09-01T02:57:20.030Z,13.94
2018-09-01T02:59:50.447Z,13.87
2018-09-01T03:02:56.468Z,14.05
2018-09-01T03:05:27.125Z,14.02
2018-09-01T03:07:58.013Z,13.89
2018-09-01T03:10:28.373Z,13.87
2018-09-01T03:12:58.732Z,13.81
2018-09-01T03:15:28.884Z,13.68
2018-09-01T03:17:59.104Z,13.72
2018-09-01T03:20:30.862Z,13.76
2018-09-01T03:23:02.674Z,13.75
2018-09-01T03:25:35.569Z,13.73
2018-09-01T03:28:06.327Z,13.49
2018-09-01T03:30:36.758Z,13.62
2018-09-01T03:33:07.752Z,13.49
2018-09-01T03:35:40.345Z,13.54
2018-09-01T03:38:12.897Z,13.42
2018-09-01T03:40:43.104Z,13.26
2018-09-01T03:43:13.886Z,13.35
2018-09-01T03:45:44.151Z,13.25
2018-09-01T03:48:14.745Z,13.38
2018-09-01T03:50:44.976Z,13.26
2018-09-01T03:53:15.792Z,13.40
2018-09-01T03:55:46.093Z,13.18
2018-09-01T03:58:16.449Z,13.20
2018-09-01T04:00:47.038Z,13.16
2018-09-01T04:03:17.828Z,13.20
2018-09-01T04:05:48.428Z,13.16
2018-09-01T04:08:18.632Z,13.05
2018-09-01T04:10:48.876Z,13.12
2018-09-01T04:13:19.147Z,13.01
2018-09-01T04:15:49.687Z,12.94
2018-09-01T04:18:20.292Z,12.98
2018-09-01T04:20:50.476Z,13.02
2018-09-01T04:23:20.825Z,12.82
2018-09-01T04:25:51.058Z,12.78
2018-09-01T04:28:21.251Z,12.78
2018-09-01T04:30:51.772Z,12.82
2018-09-01T04:33:21.923Z,12.73
2018-09-01T04:35:52.366Z,12.74
2018-09-01T04:38:22.551Z,12.77
2018-09-01T04:40:53.033Z,12.71
2018-09-01T04:43:23.442Z,12.75
2018-09-01T04:45:53.787Z,12.81
2018-09-01T04:48:24.109Z,12.78
2018-09-01T04:50:54.395Z,12.74
2018-09-01T04:53:24.721Z,12.75
2018-09-01T04:55:55.132Z,12.77
2018-09-01T04:58:25.543Z,12.86
2018-09-01T05:00:56.054Z,12.95
2018-09-01T05:03:26.646Z,12.75
2018-09-01T05:05:56.887Z,12.78
2018-09-01T05:08:27.237Z,12.75
2018-09-01T05:10:57.434Z,12.74
2018-09-01T05:13:27.791Z,12.70
2018-09-01T05:15:58.315Z,12.69
2018-09-01T05:18:28.636Z,12.67
2018-09-01T05:20:58.940Z,12.79
2018-09-01T05:23:29.369Z,12.93
2018-09-01T05:26:05.268Z,12.88
2018-09-01T05:28:37.696Z,12.83
2018-09-01T05:31:09.594Z,12.81
2018-09-01T05:33:40.025Z,12.90
2018-09-01T05:36:10.627Z,12.82
2018-09-01T05:38:48.636Z,12.67
2018-09-01T05:41:19.016Z,12.81
2018-09-01T05:43:49.354Z,13.02
2018-09-01T05:46:19.529Z,13.02
2018-09-01T05:48:49.743Z,13.32
2018-09-01T05:51:36.918Z,13.31
2018-09-01T05:54:13.040Z,13.42
2018-09-01T05:56:43.316Z,13.59
2018-09-01T05:59:13.848Z,13.73
2018-09-01T06:01:44.208Z,13.65
2018-09-01T06:04:14.426Z,13.78
2018-09-01T06:06:45.054Z,13.59
2018-09-01T06:09:15.384Z,13.58
2018-09-01T06:11:45.904Z,13.70
2018-09-01T06:14:16.361Z,13.72
2018-09-01T06:16:47.683Z,13.64
2018-09-01T06:19:22.832Z,13.59
2018-09-01T06:21:53.757Z,13.51
2018-09-01T06:24:24.462Z,13.88
2018-09-01T06:26:55.197Z,13.99
2018-09-01T06:29:26.359Z,13.84
2018-09-01T06:31:59.649Z,13.98
2018-09-01T06:34:29.938Z,14.06
2018-09-01T06:37:00.178Z,13.89
2018-09-01T06:39:30.557Z,13.93
2018-09-01T06:42:01.597Z,13.79
2018-09-01T06:44:32.168Z,13.68
2018-09-01T06:47:03.640Z,14.00
2018-09-01T06:49:38.902Z,14.06
2018-09-01T06:52:10.013Z,14.08
2018-09-01T06:54:40.411Z,14.31
2018-09-01T06:57:10.722Z,14.04
2018-09-01T06:59:41.266Z,14.28
2018-09-01T07:02:12.421Z,14.26
2018-09-01T07:04:42.928Z,14.41
2018-09-01T07:07:13.284Z,14.49
2018-09-01T07:09:43.593Z,14.66
2018-09-01T07:12:13.720Z,14.63
2018-09-01T07:14:43.884Z,14.48
2018-09-01T07:17:14.087Z,14.60
2018-09-01T07:19:44.353Z,14.85
2018-09-01T07:22:15.142Z,14.91
2018-09-01T07:24:45.498Z,14.70
2018-09-01T07:27:15.916Z,14.72
2018-09-01T07:29:45.989Z,14.86
2018-09-01T07:32:16.742Z,14.65
2018-09-01T07:34:47.164Z,14.74
2018-09-01T07:37:17.723Z,14.72
2018-09-01T07:39:48.181Z,14.68
2018-09-01T07:42:18.435Z,14.71
2018-09-01T07:44:48.896Z,15.03
2018-09-01T07:47:19.651Z,14.93
2018-09-01T07:49:49.958Z,14.96
2018-09-01T07:52:20.319Z,14.81
2018-09-01T07:54:50.695Z,15.27
2018-09-01T07:57:20.821Z,15.27
2018-09-01T07:59:52.233Z,15.33
2018-09-01T08:02:22.415Z,15.40
2018-09-01T08:04:52.587Z,15.61
2018-09-01T08:07:22.925Z,15.81
2018-09-01T08:09:53.142Z,15.67
2018-09-01T08:12:23.423Z,16.00
2018-09-01T08:14:53.791Z,16.26
2018-09-01T08:17:24.045Z,16.74
2018-09-01T08:19:54.767Z,17.09
2018-09-01T08:22:25.188Z,17.45
2018-09-01T08:24:56.206Z,18.02
2018-09-01T08:27:26.377Z,18.16
2018-09-01T08:29:58.291Z,17.74
2018-09-01T08:32:28.822Z,17.61
2018-09-01T08:34:59.091Z,17.97
2018-09-01T08:37:29.220Z,17.34
2018-09-01T08:39:59.479Z,16.90
2018-09-01T08:42:30.228Z,16.48
2018-09-01T08:45:00.864Z,16.67
2018-09-01T08:47:31.752Z,17.01
2018-09-01T08:50:02.155Z,16.64
2018-09-01T08:52:32.537Z,16.67
2018-09-01T08:55:03.517Z,17.04
2018-09-01T08:57:34.283Z,17.26
2018-09-01T09:00:06.337Z,17.70
2018-09-01T09:02:36.937Z,17.68
2018-09-01T09:05:07.636Z,17.59
2018-09-01T09:07:38.115Z,17.58
2018-09-01T09:10:08.398Z,17.52
2018-09-01T09:12:38.533Z,17.38
2018-09-01T09:15:13.784Z,17.30
2018-09-01T09:17:44.820Z,17.68
2018-09-01T09:20:23.001Z,18.10
2018-09-01T09:23:03.012Z,17.74
2018-09-01T09:25:33.261Z,17.54
2018-09-01T09:28:05.132Z,17.62
2018-09-01T09:30:35.769Z,17.18
2018-09-01T09:33:06.782Z,17.47
2018-09-01T09:35:38.993Z,17.37
2018-09-01T09:38:10.875Z,17.50
2018-09-01T09:40:41.283Z,17.65
2018-09-01T09:43:13.441Z,17.36
2018-09-01T09:45:43.891Z,17.22
2018-09-01T09:48:16.336Z,17.35
2018-09-01T09:50:46.704Z,17.32
2018-09-01T09:53:19.328Z,17.11
2018-09-01T09:55:49.686Z,17.10
2018-09-01T09:58:20.701Z,17.25
2018-09-01T10:00:55.982Z,17.01
2018-09-01T10:03:27.640Z,17.38
2018-09-01T10:05:57.993Z,17.69
2018-09-01T10:08:30.024Z,17.65
2018-09-01T10:11:00.404Z,17.34
2018-09-01T10:13:32.792Z,17.47
2018-09-01T10:16:03.393Z,17.57
2018-09-01T10:18:33.713Z,17.67
2018-09-01T10:21:04.119Z,17.73
2018-09-01T10:23:34.342Z,17.20
2018-09-01T10:26:05.151Z,17.10
2018-09-01T10:28:35.399Z,17.27
2018-09-01T10:31:05.777Z,17.35
2018-09-01T10:33:36.004Z,16.96
2018-09-01T10:36:06.365Z,16.90
2018-09-01T10:38:36.897Z,17.22
2018-09-01T10:41:07.362Z,17.73
2018-09-01T10:43:38.124Z,17.79
2018-09-01T10:46:08.787Z,17.56
2018-09-01T10:48:39.167Z,17.22
2018-09-01T10:51:09.501Z,17.51
2018-09-01T10:53:39.700Z,17.61
2018-09-01T10:56:10.144Z,17.55
2018-09-01T10:58:40.642Z,17.59
2018-09-01T11:01:10.959Z,17.54
2018-09-01T11:03:41.342Z,18.22
2018-09-01T11:06:11.873Z,17.88
2018-09-01T11:08:42.041Z,17.78
2018-09-01T11:11:12.225Z,17.97
2018-09-01T11:13:44.236Z,17.91
2018-09-01T11:16:15.697Z,17.85
2018-09-01T11:18:46.145Z,17.73
2018-09-01T11:21:16.317Z,17.80
2018-09-01T11:23:46.810Z,17.61
2018-09-01T11:26:17.057Z,17.98
2018-09-01T11:28:48.318Z,18.06
2018-09-01T11:31:18.592Z,17.60
2018-09-01T11:33:49.151Z,17.41
2018-09-01T11:36:19.387Z,17.33
2018-09-01T11:38:52.496Z,17.08
2018-09-01T11:41:22.971Z,17.14
2018-09-01T11:43:54.790Z,17.12
2018-09-01T11:46:25.557Z,16.92
2018-09-01T11:48:56.324Z,17.24
2018-09-01T11:51:26.703Z,17.03
2018-09-01T11:53:57.232Z,17.19
2018-09-01T11:56:28.165Z,17.31
2018-09-01T11:58:58.670Z,17.32
2018-09-01T12:01:28.875Z,17.04
2018-09-01T12:03:59.162Z,17.01
2018-09-01T12:06:29.343Z,17.35
2018-09-01T12:08:59.910Z,17.59
2018-09-01T12:11:30.795Z,17.77
2018-09-01T12:14:01.414Z,17.63
2018-09-01T12:16:31.804Z,17.72
2018-09-01T12:19:01.981Z,17.49
2018-09-01T12:21:32.154Z,17.58
2018-09-01T12:24:02.598Z,17.25
2018-09-01T12:26:32.795Z,17.26
2018-09-01T12:29:03.303Z,17.35
2018-09-01T12:31:33.667Z,17.52
2018-09-01T12:34:04.360Z,17.55
2018-09-01T12:36:34.719Z,17.37
2018-09-01T12:39:05.619Z,17.30
2018-09-01T12:41:35.724Z,17.28
2018-09-01T12:44:05.907Z,17.59
2018-09-01T12:46:36.019Z,16.94
2018-09-01T12:49:06.443Z,17.45
2018-09-01T12:51:36.612Z,17.44
2018-09-01T12:54:06.855Z,17.23
2018-09-01T12:56:37.311Z,17.47
2018-09-01T12:59:07.655Z,17.48
2018-09-01T13:01:37.839Z,17.12
2018-09-01T13:04:08.142Z,17.04
2018-09-01T13:06:38.916Z,17.20
2018-09-01T13:09:09.335Z,17.11
2018-09-01T13:11:39.633Z,17.26
2018-09-01T13:14:09.775Z,17.23
2018-09-01T13:16:40.149Z,17.01
2018-09-01T13:19:10.372Z,16.97
2018-09-01T13:21:41.194Z,17.15
2018-09-01T13:24:11.428Z,17.02
2018-09-01T13:26:44.121Z,17.00
2018-09-01T13:29:14.801Z,17.25
2018-09-01T13:31:45.033Z,17.28
2018-09-01T13:34:15.484Z,17.21
2018-09-01T13:36:45.745Z,17.04
2018-09-01T13:39:16.060Z,16.97
2018-09-01T13:41:46.411Z,17.04
2018-09-01T13:44:16.736Z,17.12
2018-09-01T13:46:46.991Z,17.13
2018-09-01T13:49:17.355Z,17.20
2018-09-01T13:51:47.601Z,17.33
2018-09-01T13:54:17.860Z,17.30
2018-09-01T13:56:48.281Z,17.28
2018-09-01T13:59:18.582Z,17.21
2018-09-01T14:01:48.832Z,17.30
2018-09-01T14:04:18.951Z,17.23
2018-09-01T14:06:49.146Z,16.82
2018-09-01T14:09:19.317Z,17.00
2018-09-01T14:11:49.648Z,16.90
2018-09-01T14:14:20.008Z,16.88
2018-09-01T14:16:50.271Z,17.27
2018-09-01T14:19:20.531Z,17.19
2018-09-01T14:21:51.013Z,17.38
2018-09-01T14:24:21.299Z,17.16
2018-09-01T14:26:51.563Z,17.28
2018-09-01T14:29:21.634Z,17.45
2018-09-01T14:31:52.038Z,17.62
2018-09-01T14:34:22.641Z,17.67
2018-09-01T14:36:52.956Z,17.58
2018-09-01T14:39:23.239Z,17.57
2018-09-01T14:41:53.598Z,17.53
2018-09-01T14:44:24.153Z,17.44
2018-09-01T14:46:54.433Z,17.27
2018-09-01T14:49:24.648Z,17.27
2018-09-01T14:51:55.015Z,17.57
2018-09-01T14:54:25.266Z,17.54
2018-09-01T14:56:56.026Z,17.56
2018-09-01T14:59:26.301Z,17.55
2018-09-01T15:01:56.950Z,17.34
2018-09-01T15:04:27.209Z,17.52
2018-09-01T15:06:57.654Z,17.59
2018-09-01T15:09:27.886Z,17.76
2018-09-01T15:11:58.212Z,17.62
2018-09-01T15:14:28.465Z,17.60
2018-09-01T15:16:58.825Z,17.66
2018-09-01T15:19:29.180Z,17.31
2018-09-01T15:21:59.525Z,17.28
2018-09-01T15:24:29.777Z,17.03
2018-09-01T15:27:00.077Z,17.06
2018-09-01T15:29:30.439Z,17.06
2018-09-01T15:32:01.304Z,16.83
2018-09-01T15:34:32.408Z,16.91
2018-09-01T15:37:02.645Z,16.94
2018-09-01T15:39:32.816Z,16.94
2018-09-01T15:42:04.053Z,16.99
2018-09-01T15:44:34.388Z,16.87
2018-09-01T15:47:04.644Z,16.91
2018-09-01T15:49:34.888Z,16.85
2018-09-01T15:52:05.596Z,16.64
2018-09-01T15:54:35.839Z,16.71
2018-09-01T15:57:06.210Z,16.81
2018-09-01T15:59:36.405Z,17.05
2018-09-01T16:02:06.804Z,16.72
2018-09-01T16:04:37.005Z,16.85
2018-09-01T16:07:08.488Z,16.71
2018-09-01T16:09:39.274Z,16.70
2018-09-01T16:12:10.065Z,16.76
2018-09-01T16:14:40.211Z,16.60
2018-09-01T16:17:10.751Z,16.58
2018-09-01T16:19:40.863Z,16.61
2018-09-01T16:22:11.155Z,16.53
2018-09-01T16:24:41.455Z,16.48
2018-09-01T16:27:11.667Z,16.40
2018-09-01T16:29:41.873Z,16.53
2018-09-01T16:32:12.243Z,16.58
2018-09-01T16:34:42.572Z,16.61
2018-09-01T16:37:12.678Z,16.62
2018-09-01T16:39:43.390Z,16.66
2018-09-01T16:42:13.613Z,16.57
2018-09-01T16:44:44.394Z,16.45
2018-09-01T16:47:14.559Z,16.74
2018-09-01T16:49:44.716Z,16.53
2018-09-01T16:52:15.220Z,16.52
2018-09-01T16:54:46.619Z,16.32
2018-09-01T16:57:18.124Z,16.52
2018-09-01T16:59:49.730Z,16.37
2018-09-01T17:02:24.860Z,16.45
2018-09-01T17:04:59.336Z,16.40
2018-09-01T17:07:31.527Z,16.33
2018-09-01T17:10:03.260Z,16.53
2018-09-01T17:12:35.295Z,16.54
2018-09-01T17:15:06.150Z,16.26
2018-09-01T17:17:37.739Z,16.44
2018-09-01T17:20:12.589Z,16.64
2018-09-01T17:22:48.685Z,16.69
2018-09-01T17:25:22.035Z,16.56
2018-09-01T17:27:53.102Z,16.64
2018-09-01T17:30:23.468Z,16.51
2018-09-01T17:32:55.060Z,16.71
2018-09-01T17:38:22.504Z,16.81
2018-09-01T17:40:57.844Z,16.65
2018-09-01T17:43:28.003Z,16.46
2018-09-01T17:45:58.449Z,16.30
2018-09-01T17:48:28.705Z,16.37
2018-09-01T17:50:59.008Z,16.40
2018-09-01T17:53:29.716Z,16.41
2018-09-01T17:56:00.004Z,16.41
2018-09-01T17:58:30.964Z,16.30
2018-09-01T18:01:01.660Z,16.41
2018-09-01T18:03:31.987Z,16.62
2018-09-01T18:06:02.897Z,16.51
2018-09-01T18:08:33.358Z,16.24
2018-09-01T18:11:04.038Z,16.30
2018-09-01T18:13:34.619Z,16.20
2018-09-01T18:16:05.152Z,16.07
2018-09-01T18:18:36.897Z,16.11
2018-09-01T18:21:07.301Z,16.22
2018-09-01T18:23:39.497Z,16.29
2018-09-01T18:26:10.547Z,16.25
2018-09-01T18:28:40.963Z,16.15
2018-09-01T18:31:14.030Z,16.23
2018-09-01T18:33:46.352Z,16.19
2018-09-01T18:36:16.599Z,16.34
2018-09-01T18:38:46.715Z,16.33
2018-09-01T18:41:17.025Z,16.25
2018-09-01T18:43:47.298Z,16.19
2018-09-01T18:46:17.591Z,16.10
2018-09-01T18:48:50.269Z,16.10
2018-09-01T18:51:20.733Z,16.05
2018-09-01T18:53:51.346Z,16.06
2018-09-01T18:56:22.483Z,16.18
2018-09-01T18:58:53.328Z,16.25
2018-09-01T19:01:23.561Z,16.10
2018-09-01T19:03:55.535Z,16.17
2018-09-01T19:06:26.080Z,16.17
2018-09-01T19:08:56.164Z,16.03
2018-09-01T19:11:26.528Z,16.03
2018-09-01T19:13:56.982Z,16.08
2018-09-01T19:16:27.049Z,16.00
2018-09-01T19:18:57.976Z,16.12
2018-09-01T19:21:28.728Z,16.00
2018-09-01T19:23:58.931Z,16.07
2018-09-01T19:26:33.451Z,15.83
2018-09-01T19:29:03.844Z,15.90
2018-09-01T19:31:35.119Z,15.97
2018-09-01T19:34:07.546Z,15.86
2018-09-01T19:36:40.904Z,15.85
2018-09-01T19:39:13.825Z,15.86
2018-09-01T19:41:46.608Z,15.92
2018-09-01T19:44:17.700Z,15.97
2018-09-01T19:46:47.820Z,15.71
2018-09-01T19:49:18.004Z,15.82
2018-09-01T19:51:49.854Z,15.78
2018-09-01T19:54:20.219Z,15.78
2018-09-01T19:56:53.901Z,15.58
2018-09-01T19:59:24.272Z,15.72
2018-09-01T20:01:55.556Z,15.75
2018-09-01T20:04:25.837Z,15.70
2018-09-01T20:06:56.088Z,15.56
2018-09-01T20:09:26.744Z,15.60
2018-09-01T20:11:56.879Z,15.59
2018-09-01T20:14:27.484Z,15.66
2018-09-01T20:16:57.697Z,15.77
2018-09-01T20:19:28.401Z,15.75
2018-09-01T20:21:59.044Z,15.75
2018-09-01T20:24:34.448Z,15.79
2018-09-01T20:27:05.925Z,15.79
2018-09-01T20:29:36.106Z,15.87
2018-09-01T20:32:08.730Z,15.85
2018-09-01T20:34:44.234Z,16.00
2018-09-01T20:37:17.939Z,15.97
2018-09-01T20:39:49.789Z,15.71
2018-09-01T20:42:20.564Z,15.85
2018-09-01T20:44:51.543Z,15.76
2018-09-01T20:47:22.525Z,15.90
2018-09-01T20:49:53.920Z,15.93
2018-09-01T20:52:24.232Z,15.75
2018-09-01T20:54:57.229Z,15.84
2018-09-01T20:57:27.819Z,15.78
2018-09-01T21:00:01.019Z,15.79
2018-09-01T21:02:32.219Z,15.73
2018-09-01T21:05:02.774Z,15.79
2018-09-01T21:07:33.152Z,15.83
2018-09-01T21:10:03.649Z,15.75
2018-09-01T21:12:34.030Z,15.57
2018-09-01T21:15:08.054Z,15.66
2018-09-01T21:17:39.091Z,15.57
2018-09-01T21:20:09.687Z,15.62
2018-09-01T21:22:39.993Z,15.61
2018-09-01T21:25:10.180Z,15.42
2018-09-01T21:27:40.553Z,15.56
2018-09-01T21:30:10.945Z,15.27
2018-09-01T21:32:41.300Z,15.47
2018-09-01T21:35:11.591Z,15.34
2018-09-01T21:37:42.060Z,15.62
2018-09-01T21:40:12.229Z,15.53
2018-09-01T21:42:42.893Z,15.64
2018-09-01T21:45:14.152Z,15.48
2018-09-01T21:47:44.491Z,15.20
2018-09-01T21:50:14.685Z,15.31
2018-09-01T21:52:45.006Z,15.19
2018-09-01T21:55:15.527Z,15.27
2018-09-01T21:57:46.093Z,15.30
2018-09-01T22:00:16.528Z,15.33
2018-09-01T22:02:46.776Z,15.22
2018-09-01T22:05:23.843Z,15.19
2018-09-01T22:07:54.228Z,15.22
2018-09-01T22:10:24.548Z,15.20
2018-09-01T22:12:54.890Z,14.98
2018-09-01T22:15:25.191Z,15.00
2018-09-01T22:17:55.409Z,15.04
2018-09-01T22:20:25.654Z,15.07
2018-09-01T22:22:56.571Z,14.99
2018-09-01T22:25:26.812Z,15.04
2018-09-01T22:27:57.093Z,15.10
2018-09-01T22:30:31.871Z,14.93
2018-09-01T22:33:03.048Z,14.81
2018-09-01T22:35:33.794Z,14.92
2018-09-01T22:38:06.322Z,14.91
2018-09-01T22:40:40.472Z,15.03
2018-09-01T22:43:14.404Z,14.91
2018-09-01T22:45:44.675Z,14.96
2018-09-01T22:48:19.982Z,14.92
2018-09-01T22:50:50.345Z,15.02
2018-09-01T22:53:20.617Z,14.93
2018-09-01T22:55:51.419Z,15.11
2018-09-01T22:58:21.606Z,14.94
2018-09-01T23:00:51.896Z,14.95
2018-09-01T23:03:22.024Z,14.95
2018-09-01T23:05:52.290Z,14.96
2018-09-01T23:08:22.484Z,15.12
2018-09-01T23:10:52.883Z,14.90
2018-09-01T23:13:23.180Z,14.83
2018-09-01T23:15:53.567Z,14.92
2018-09-01T23:18:23.709Z,14.99
2018-09-01T23:20:54.144Z,14.96
2018-09-01T23:23:24.551Z,15.00
2018-09-01T23:25:55.028Z,15.04
2018-09-01T23:28:25.293Z,15.10
2018-09-01T23:30:55.435Z,15.00
2018-09-01T23:33:25.746Z,14.99
2018-09-01T23:35:56.273Z,15.01
2018-09-01T23:38:26.579Z,15.03
2018-09-01T23:40:57.170Z,15.00
2018-09-01T23:43:27.494Z,14.86
2018-09-01T23:45:57.901Z,14.74
2018-09-01T23:48:28.166Z,14.85
2018-09-01T23:50:58.336Z,14.74
2018-09-01T23:53:28.596Z,14.93
2018-09-01T23:55:58.946Z,14.71
2018-09-01T23:58:29.312Z,14.97
